createdAt,value
2017-11-23T00:00:30.506Z,8.09
2017-11-23T00:01:30.520Z,8.10
2017-11-23T00:02:30.536Z,8.13
2017-11-23T00:03:30.550Z,8.15
2017-11-23T00:04:30.561Z,8.16
2017-11-23T00:05:30.595Z,8.10
2017-11-23T00:06:30.595Z,8.10
2017-11-23T00:07:30.608Z,8.13
2017-11-23T00:08:30.623Z,8.13
2017-11-23T00:09:30.639Z,8.03
2017-11-23T00:10:30.653Z,8.01
2017-11-23T00:11:30.670Z,8.06
2017-11-23T00:12:30.684Z,8.03
2017-11-23T00:13:30.701Z,7.98
2017-11-23T00:14:30.718Z,8.00
2017-11-23T00:15:30.728Z,8.01
2017-11-23T00:16:30.742Z,8.06
2017-11-23T00:17:30.759Z,8.03
2017-11-23T00:18:30.776Z,7.93
2017-11-23T00:19:30.791Z,8.05
2017-11-23T00:20:30.814Z,8.00
2017-11-23T00:21:30.822Z,8.01
2017-11-23T00:22:30.844Z,8.00
2017-11-23T00:23:30.853Z,7.90
2017-11-23T00:24:30.863Z,7.83
2017-11-23T00:25:30.881Z,7.77
2017-11-23T00:26:30.899Z,7.83
2017-11-23T00:27:30.911Z,7.61
2017-11-23T00:28:30.923Z,7.72
2017-11-23T00:29:30.944Z,7.79
2017-11-23T00:30:30.956Z,7.90
2017-11-23T00:31:30.970Z,7.76
2017-11-23T00:32:30.982Z,7.91
2017-11-23T00:33:31.001Z,7.91
2017-11-23T00:34:31.015Z,8.01
2017-11-23T00:35:31.029Z,8.00
2017-11-23T00:36:31.045Z,8.16
2017-11-23T00:37:31.059Z,8.18
2017-11-23T00:38:31.075Z,8.18
2017-11-23T00:39:31.090Z,8.20
2017-11-23T00:40:31.106Z,8.19
2017-11-23T00:41:31.119Z,8.34
2017-11-23T00:42:31.136Z,8.31
2017-11-23T00:43:31.154Z,8.28
2017-11-23T00:44:31.166Z,8.33
2017-11-23T00:45:31.179Z,8.36
2017-11-23T00:46:31.195Z,8.33
2017-11-23T00:47:31.212Z,8.41
2017-11-23T00:48:31.224Z,8.45
2017-11-23T00:49:31.250Z,8.51
2017-11-23T00:50:31.260Z,8.49
2017-11-23T00:51:31.273Z,8.61
2017-11-23T00:52:31.295Z,8.58
2017-11-23T00:53:31.297Z,8.55
2017-11-23T00:54:31.318Z,8.42
2017-11-23T00:55:31.332Z,8.45
2017-11-23T00:56:31.344Z,8.46
2017-11-23T00:57:31.361Z,8.24
2017-11-23T00:58:31.375Z,8.30
2017-11-23T00:59:31.391Z,8.33
2017-11-23T01:00:31.404Z,8.28
2017-11-23T01:01:31.419Z,8.20
2017-11-23T01:02:31.436Z,8.30
2017-11-23T01:03:31.454Z,8.31
2017-11-23T01:04:31.468Z,8.33
2017-11-23T01:05:31.484Z,8.19
2017-11-23T01:06:31.496Z,8.38
2017-11-23T01:07:31.511Z,8.36
2017-11-23T01:08:31.526Z,8.28
2017-11-23T01:09:31.541Z,8.30
2017-11-23T01:10:31.558Z,8.42
2017-11-23T01:11:31.573Z,8.53
2017-11-23T01:12:31.588Z,8.66
2017-11-23T01:13:31.603Z,8.71
2017-11-23T01:14:31.618Z,8.79
2017-11-23T01:15:31.633Z,8.66
2017-11-23T01:16:31.656Z,8.70
2017-11-23T01:17:31.665Z,8.71
2017-11-23T01:18:31.677Z,8.67
2017-11-23T01:19:31.692Z,8.58
2017-11-23T01:20:31.707Z,8.51
2017-11-23T01:21:31.724Z,8.67
2017-11-23T01:22:31.741Z,8.70
2017-11-23T01:23:31.754Z,8.66
2017-11-23T01:24:31.767Z,8.69
2017-11-23T01:25:31.782Z,8.69
2017-11-23T01:26:31.800Z,8.69
2017-11-23T01:27:31.817Z,8.67
2017-11-23T01:28:31.828Z,8.70
2017-11-23T01:29:31.852Z,8.78
2017-11-23T01:30:31.864Z,8.70
2017-11-23T01:31:31.873Z,8.74
2017-11-23T01:32:31.890Z,8.81
2017-11-23T01:33:31.906Z,8.82
2017-11-23T01:34:31.923Z,8.71
2017-11-23T01:35:31.936Z,8.87
2017-11-23T01:36:31.949Z,8.89
2017-11-23T01:37:31.967Z,8.94
2017-11-23T01:38:31.981Z,8.92
2017-11-23T01:39:31.997Z,9.03
2017-11-23T01:40:32.018Z,8.76
2017-11-23T01:41:32.028Z,8.89
2017-11-23T01:42:32.044Z,8.76
2017-11-23T01:43:32.058Z,8.73
2017-11-23T01:44:32.071Z,8.84
2017-11-23T01:45:32.090Z,8.94
2017-11-23T01:46:32.103Z,8.91
2017-11-23T01:47:32.121Z,8.91
2017-11-23T01:48:32.137Z,8.84
2017-11-23T01:49:32.150Z,8.79
2017-11-23T01:50:32.166Z,8.94
2017-11-23T01:51:32.183Z,8.99
2017-11-23T01:52:32.196Z,8.94
2017-11-23T01:53:32.211Z,9.00
2017-11-23T01:54:32.236Z,9.04
2017-11-23T01:55:32.243Z,8.92
2017-11-23T01:56:32.256Z,8.84
2017-11-23T01:57:33.267Z,8.88
2017-11-23T01:58:32.285Z,8.87
2017-11-23T01:59:32.301Z,8.88
2017-11-23T02:00:32.320Z,8.95
2017-11-23T02:01:32.333Z,8.95
2017-11-23T02:02:32.351Z,8.91
2017-11-23T02:03:32.367Z,8.91
2017-11-23T02:04:32.383Z,8.88
2017-11-23T02:05:32.393Z,8.94
2017-11-23T02:06:32.412Z,8.89
2017-11-23T02:07:32.431Z,9.03
2017-11-23T02:08:32.440Z,8.99
2017-11-23T02:09:32.457Z,8.88
2017-11-23T02:10:32.474Z,8.89
2017-11-23T02:11:32.491Z,8.89
2017-11-23T02:12:32.506Z,8.92
2017-11-23T02:13:32.524Z,8.97
2017-11-23T02:14:32.536Z,9.06
2017-11-23T02:15:32.548Z,9.06
2017-11-23T02:16:32.563Z,9.23
2017-11-23T02:17:32.578Z,9.21
2017-11-23T02:18:32.594Z,9.22
2017-11-23T02:19:32.612Z,9.22
2017-11-23T02:20:32.625Z,9.25
2017-11-23T02:21:32.666Z,9.26
2017-11-23T02:22:32.658Z,9.37
2017-11-23T02:23:32.671Z,9.39
2017-11-23T02:24:32.693Z,9.40
2017-11-23T02:25:32.702Z,9.43
2017-11-23T02:26:32.721Z,9.43
2017-11-23T02:27:32.735Z,9.36
2017-11-23T02:28:32.753Z,9.32
2017-11-23T02:29:32.764Z,9.37
2017-11-23T02:30:32.778Z,9.32
2017-11-23T02:31:32.802Z,9.43
2017-11-23T02:32:32.823Z,9.40
2017-11-23T02:33:32.825Z,9.19
2017-11-23T02:34:32.843Z,9.22
2017-11-23T02:35:32.857Z,9.31
2017-11-23T02:36:32.887Z,9.31
2017-11-23T02:37:32.887Z,9.34
2017-11-23T02:38:32.902Z,9.19
2017-11-23T02:39:32.920Z,9.23
2017-11-23T02:40:32.934Z,9.23
2017-11-23T02:41:32.946Z,9.32
2017-11-23T02:42:32.966Z,9.31
2017-11-23T02:43:32.978Z,9.26
2017-11-23T02:44:33.006Z,9.26
2017-11-23T02:45:33.012Z,9.22
2017-11-23T02:46:33.026Z,9.34
2017-11-23T02:47:33.042Z,9.29
2017-11-23T02:48:33.059Z,9.31
2017-11-23T02:49:33.072Z,9.23
2017-11-23T02:50:33.095Z,9.34
2017-11-23T02:51:33.108Z,9.37
2017-11-23T02:52:33.120Z,9.31
2017-11-23T02:53:33.135Z,9.21
2017-11-23T02:54:33.150Z,9.29
2017-11-23T02:55:33.165Z,9.25
2017-11-23T02:56:33.178Z,9.25
2017-11-23T02:57:33.196Z,9.32
2017-11-23T02:58:33.211Z,9.29
2017-11-23T02:59:33.225Z,9.14
2017-11-23T03:00:33.241Z,9.25
2017-11-23T03:01:33.256Z,9.18
2017-11-23T03:02:33.272Z,9.11
2017-11-23T03:03:33.292Z,9.18
2017-11-23T03:04:33.302Z,9.22
2017-11-23T03:05:33.317Z,9.29
2017-11-23T03:06:33.335Z,9.21
2017-11-23T03:07:33.350Z,9.32
2017-11-23T03:08:33.508Z,9.36
2017-11-23T03:09:33.379Z,9.14
2017-11-23T03:10:33.395Z,9.21
2017-11-23T03:11:33.413Z,9.32
2017-11-23T03:12:33.426Z,9.25
2017-11-23T03:13:33.499Z,9.32
2017-11-23T03:14:33.459Z,9.54
2017-11-23T03:15:33.473Z,9.47
2017-11-23T03:16:33.487Z,9.40
2017-11-23T03:17:33.504Z,9.40
2017-11-23T03:18:33.520Z,9.44
2017-11-23T03:19:33.545Z,9.39
2017-11-23T03:20:33.550Z,9.34
2017-11-23T03:21:33.566Z,9.32
2017-11-23T03:22:33.583Z,9.41
2017-11-23T03:23:33.596Z,9.44
2017-11-23T03:24:33.612Z,9.34
2017-11-23T03:25:33.634Z,9.39
2017-11-23T03:26:33.642Z,9.39
2017-11-23T03:27:33.661Z,9.37
2017-11-23T03:28:33.675Z,9.46
2017-11-23T03:29:33.687Z,9.34
2017-11-23T03:30:33.714Z,9.37
2017-11-23T03:31:33.719Z,9.43
2017-11-23T03:32:33.738Z,9.43
2017-11-23T03:33:33.768Z,9.39
2017-11-23T03:34:33.765Z,9.46
2017-11-23T03:35:33.783Z,9.40
2017-11-23T03:36:33.809Z,9.43
2017-11-23T03:37:33.813Z,9.34
2017-11-23T03:38:33.829Z,9.34
2017-11-23T03:39:33.847Z,9.37
2017-11-23T03:40:33.859Z,9.48
2017-11-23T03:41:33.874Z,9.48
2017-11-23T03:42:33.894Z,9.44
2017-11-23T03:43:33.908Z,9.37
2017-11-23T03:44:33.925Z,9.47
2017-11-23T03:45:33.939Z,9.39
2017-11-23T03:46:33.954Z,9.26
2017-11-23T03:47:33.968Z,9.34
2017-11-23T03:48:33.985Z,9.41
2017-11-23T03:49:34.001Z,9.36
2017-11-23T03:50:34.026Z,9.19
2017-11-23T03:51:34.031Z,9.21
2017-11-23T03:52:34.047Z,9.37
2017-11-23T03:53:34.063Z,9.34
2017-11-23T03:54:34.079Z,9.22
2017-11-23T03:55:34.097Z,8.94
2017-11-23T03:56:34.120Z,9.11
2017-11-23T03:57:34.124Z,9.02
2017-11-23T03:58:34.135Z,9.25
2017-11-23T03:59:34.155Z,9.28
2017-11-23T04:00:34.171Z,9.36
2017-11-23T04:01:34.188Z,9.34
2017-11-23T04:02:34.200Z,9.44
2017-11-23T04:03:34.217Z,9.40
2017-11-23T04:04:34.234Z,9.58
2017-11-23T04:05:34.247Z,9.48
2017-11-23T04:06:34.266Z,9.58
2017-11-23T04:07:34.283Z,9.37
2017-11-23T04:08:34.295Z,9.41
2017-11-23T04:09:34.310Z,9.32
2017-11-23T04:10:34.325Z,9.25
2017-11-23T04:11:34.343Z,9.48
2017-11-23T04:12:34.358Z,9.40
2017-11-23T04:13:34.368Z,9.39
2017-11-23T04:14:34.384Z,9.51
2017-11-23T04:15:34.410Z,9.34
2017-11-23T04:16:34.427Z,9.32
2017-11-23T04:17:34.437Z,9.32
2017-11-23T04:18:34.449Z,9.39
2017-11-23T04:19:34.462Z,9.32
2017-11-23T04:20:34.479Z,9.39
2017-11-23T04:21:34.502Z,9.37
2017-11-23T04:22:34.509Z,9.32
2017-11-23T04:23:34.524Z,9.50
2017-11-23T04:24:34.548Z,9.51
2017-11-23T04:25:34.555Z,9.41
2017-11-23T04:26:34.573Z,9.48
2017-11-23T04:27:34.585Z,9.55
2017-11-23T04:28:34.609Z,9.46
2017-11-23T04:29:34.621Z,9.47
2017-11-23T04:30:34.632Z,9.56
2017-11-23T04:31:34.647Z,9.51
2017-11-23T04:32:34.664Z,9.50
2017-11-23T04:33:34.680Z,9.62
2017-11-23T04:34:34.698Z,9.48
2017-11-23T04:35:34.713Z,9.46
2017-11-23T04:36:34.725Z,9.43
2017-11-23T04:37:34.748Z,9.48
2017-11-23T04:38:34.767Z,9.54
2017-11-23T04:39:34.777Z,9.51
2017-11-23T04:40:34.915Z,9.55
2017-11-23T04:41:34.814Z,9.69
2017-11-23T04:42:34.832Z,9.69
2017-11-23T04:43:34.845Z,9.69
2017-11-23T04:44:34.847Z,9.80
2017-11-23T04:45:34.864Z,9.68
2017-11-23T04:46:34.882Z,9.73
2017-11-23T04:47:34.953Z,9.89
2017-11-23T04:48:34.910Z,9.83
2017-11-23T04:49:34.923Z,9.74
2017-11-23T04:50:34.942Z,9.62
2017-11-23T04:51:34.956Z,9.65
2017-11-23T04:52:34.971Z,9.64
2017-11-23T04:53:34.987Z,9.86
2017-11-23T04:54:35.004Z,9.91
2017-11-23T04:55:35.019Z,9.84
2017-11-23T04:56:35.039Z,9.86
2017-11-23T04:57:35.050Z,9.89
2017-11-23T04:58:35.067Z,9.97
2017-11-23T04:59:35.083Z,9.98
2017-11-23T05:00:35.102Z,9.80
2017-11-23T05:01:35.121Z,9.83
2017-11-23T05:02:35.128Z,9.91
2017-11-23T05:03:35.140Z,10.02
2017-11-23T05:04:35.159Z,9.97
2017-11-23T05:05:35.175Z,9.89
2017-11-23T05:06:35.189Z,9.87
2017-11-23T05:07:35.208Z,10.01
2017-11-23T05:08:35.233Z,10.02
2017-11-23T05:09:35.235Z,9.98
2017-11-23T05:10:35.252Z,10.15
2017-11-23T05:11:35.270Z,10.02
2017-11-23T05:12:35.292Z,10.07
2017-11-23T05:13:35.301Z,10.12
2017-11-23T05:14:35.317Z,10.02
2017-11-23T05:15:35.335Z,10.09
2017-11-23T05:16:35.344Z,10.07
2017-11-23T05:17:35.361Z,10.05
2017-11-23T05:18:35.377Z,10.12
2017-11-23T05:19:35.395Z,10.13
2017-11-23T05:20:35.419Z,10.15
2017-11-23T05:21:35.427Z,10.28
2017-11-23T05:22:35.446Z,10.13
2017-11-23T05:23:35.457Z,10.12
2017-11-23T05:24:35.473Z,10.20
2017-11-23T05:25:35.489Z,10.07
2017-11-23T05:26:35.504Z,9.98
2017-11-23T05:27:35.519Z,10.01
2017-11-23T05:28:35.535Z,10.07
2017-11-23T05:29:35.548Z,10.12
2017-11-23T05:30:35.567Z,10.10
2017-11-23T05:31:35.583Z,10.07
2017-11-23T05:32:35.600Z,10.22
2017-11-23T05:33:35.614Z,10.12
2017-11-23T05:34:35.630Z,10.07
2017-11-23T05:35:35.643Z,10.01
2017-11-23T05:36:35.660Z,9.99
2017-11-23T05:37:35.676Z,10.15
2017-11-23T05:38:35.693Z,9.99
2017-11-23T05:39:35.708Z,9.95
2017-11-23T05:40:35.722Z,10.16
2017-11-23T05:41:35.739Z,10.12
2017-11-23T05:42:35.754Z,10.10
2017-11-23T05:43:35.775Z,10.07
2017-11-23T05:44:35.791Z,10.05
2017-11-23T05:45:35.811Z,10.12
2017-11-23T05:46:35.819Z,10.23
2017-11-23T05:47:35.834Z,10.23
2017-11-23T05:48:35.849Z,10.15
2017-11-23T05:49:35.872Z,10.17
2017-11-23T05:50:35.883Z,10.26
2017-11-23T05:51:35.899Z,10.13
2017-11-23T05:52:35.914Z,10.17
2017-11-23T05:53:35.935Z,10.12
2017-11-23T05:54:35.945Z,10.19
2017-11-23T05:55:35.964Z,10.09
2017-11-23T05:56:35.980Z,10.23
2017-11-23T05:57:35.999Z,10.28
2017-11-23T05:58:36.010Z,10.17
2017-11-23T05:59:36.024Z,10.09
2017-11-23T06:00:36.042Z,10.19
2017-11-23T06:01:36.064Z,10.26
2017-11-23T06:02:36.077Z,10.25
2017-11-23T06:03:36.096Z,10.26
2017-11-23T06:04:36.109Z,10.28
2017-11-23T06:05:36.124Z,10.30
2017-11-23T06:06:36.139Z,10.25
2017-11-23T06:07:36.151Z,10.26
2017-11-23T06:08:36.176Z,10.12
2017-11-23T06:09:36.182Z,10.19
2017-11-23T06:10:36.198Z,9.98
2017-11-23T06:11:36.215Z,10.01
2017-11-23T06:12:36.232Z,10.13
2017-11-23T06:13:36.247Z,10.12
2017-11-23T06:14:36.266Z,9.98
2017-11-23T06:15:36.290Z,9.92
2017-11-23T06:16:36.291Z,10.07
2017-11-23T06:17:36.321Z,10.12
2017-11-23T06:18:36.326Z,10.09
2017-11-23T06:19:36.341Z,10.04
2017-11-23T06:20:36.358Z,9.97
2017-11-23T06:21:36.373Z,10.02
2017-11-23T06:22:36.388Z,9.98
2017-11-23T06:23:36.405Z,10.09
2017-11-23T06:24:36.419Z,10.10
2017-11-23T06:25:36.436Z,10.16
2017-11-23T06:26:36.453Z,10.15
2017-11-23T06:27:36.469Z,10.12
2017-11-23T06:28:36.493Z,9.98
2017-11-23T06:29:36.502Z,9.83
2017-11-23T06:30:36.521Z,9.80
2017-11-23T06:31:36.533Z,9.77
2017-11-23T06:32:36.550Z,9.87
2017-11-23T06:33:36.562Z,9.92
2017-11-23T06:34:36.579Z,9.95
2017-11-23T06:35:36.596Z,9.98
2017-11-23T06:36:36.614Z,9.94
2017-11-23T06:37:36.630Z,10.12
2017-11-23T06:38:36.644Z,10.13
2017-11-23T06:39:36.659Z,10.23
2017-11-23T06:40:36.675Z,10.23
2017-11-23T06:41:36.687Z,10.25
2017-11-23T06:42:36.707Z,10.05
2017-11-23T06:43:36.724Z,10.01
2017-11-23T06:44:36.735Z,10.10
2017-11-23T06:45:36.752Z,10.10
2017-11-23T06:46:36.767Z,10.13
2017-11-23T06:47:36.789Z,10.15
2017-11-23T06:48:36.801Z,10.23
2017-11-23T06:49:36.815Z,10.34
2017-11-23T06:50:36.839Z,10.37
2017-11-23T06:51:36.858Z,10.37
2017-11-23T06:52:36.864Z,10.33
2017-11-23T06:53:36.880Z,10.41
2017-11-23T06:54:36.898Z,10.44
2017-11-23T06:55:36.915Z,10.25
2017-11-23T06:56:36.926Z,10.23
2017-11-23T06:57:36.941Z,10.26
2017-11-23T06:58:36.959Z,10.40
2017-11-23T06:59:36.975Z,10.28
2017-11-23T07:00:36.992Z,10.49
2017-11-23T07:01:37.005Z,10.23
2017-11-23T07:02:37.027Z,10.33
2017-11-23T07:03:37.043Z,10.37
2017-11-23T07:04:37.053Z,10.46
2017-11-23T07:05:37.069Z,10.40
2017-11-23T07:06:37.095Z,10.42
2017-11-23T07:07:37.101Z,10.37
2017-11-23T07:08:37.118Z,10.38
2017-11-23T07:09:37.131Z,10.28
2017-11-23T07:10:37.148Z,10.38
2017-11-23T07:11:37.169Z,10.33
2017-11-23T07:12:37.205Z,10.26
2017-11-23T07:13:37.193Z,10.31
2017-11-23T07:14:37.223Z,10.30
2017-11-23T07:15:37.229Z,10.20
2017-11-23T07:16:37.245Z,10.37
2017-11-23T07:17:37.259Z,10.37
2017-11-23T07:18:37.284Z,10.28
2017-11-23T07:19:37.304Z,10.37
2017-11-23T07:20:37.307Z,10.49
2017-11-23T07:21:37.323Z,10.53
2017-11-23T07:22:37.339Z,10.40
2017-11-23T07:23:37.355Z,10.41
2017-11-23T07:24:37.372Z,10.35
2017-11-23T07:25:37.389Z,10.30
2017-11-23T07:26:37.405Z,10.41
2017-11-23T07:27:37.419Z,10.37
2017-11-23T07:28:37.439Z,10.40
2017-11-23T07:29:37.454Z,10.46
2017-11-23T07:30:37.473Z,10.46
2017-11-23T07:31:37.491Z,10.42
2017-11-23T07:32:37.506Z,10.57
2017-11-23T07:33:37.514Z,10.59
2017-11-23T07:34:37.535Z,10.54
2017-11-23T07:35:37.550Z,10.57
2017-11-23T07:36:37.567Z,10.57
2017-11-23T07:37:37.585Z,10.61
2017-11-23T07:38:37.598Z,10.68
2017-11-23T07:39:37.612Z,10.68
2017-11-23T07:40:37.628Z,10.76
2017-11-23T07:41:37.644Z,10.71
2017-11-23T07:42:37.665Z,10.82
2017-11-23T07:43:37.680Z,10.67
2017-11-23T07:44:37.692Z,10.67
2017-11-23T07:45:37.708Z,10.78
2017-11-23T07:46:37.726Z,10.68
2017-11-23T07:47:37.751Z,10.74
2017-11-23T07:48:37.757Z,10.90
2017-11-23T07:49:37.778Z,10.86
2017-11-23T07:50:37.790Z,10.87
2017-11-23T07:51:37.807Z,10.97
2017-11-23T07:52:37.824Z,11.02
2017-11-23T07:53:37.845Z,10.97
2017-11-23T07:54:37.855Z,10.94
2017-11-23T07:55:37.884Z,10.94
2017-11-23T07:56:37.895Z,10.87
2017-11-23T07:57:37.906Z,10.71
2017-11-23T07:58:37.924Z,10.68
2017-11-23T07:59:37.939Z,10.90
2017-11-23T08:00:37.960Z,11.14
2017-11-23T08:01:37.975Z,11.00
2017-11-23T08:02:37.987Z,10.87
2017-11-23T08:03:38.006Z,11.05
2017-11-23T08:04:38.021Z,11.04
2017-11-23T08:05:38.032Z,11.02
2017-11-23T08:06:38.059Z,11.00
2017-11-23T08:07:38.067Z,11.10
2017-11-23T08:08:38.082Z,11.05
2017-11-23T08:09:38.097Z,11.04
2017-11-23T08:10:38.114Z,11.17
2017-11-23T08:11:38.134Z,11.14
2017-11-23T08:12:38.149Z,11.12
2017-11-23T08:13:38.167Z,11.15
2017-11-23T08:14:38.180Z,11.14
2017-11-23T08:15:38.202Z,11.19
2017-11-23T08:16:38.221Z,11.33
2017-11-23T08:17:38.231Z,11.37
2017-11-23T08:18:38.247Z,11.36
2017-11-23T08:19:38.263Z,11.45
2017-11-23T08:20:38.278Z,11.43
2017-11-23T08:21:38.296Z,11.27
2017-11-23T08:22:38.313Z,11.50
2017-11-23T08:23:38.331Z,11.48
2017-11-23T08:24:38.354Z,11.41
2017-11-23T08:25:38.361Z,11.45
2017-11-23T08:26:38.384Z,11.43
2017-11-23T08:27:38.399Z,11.57
2017-11-23T08:28:38.413Z,11.60
2017-11-23T08:29:38.427Z,11.65
2017-11-23T08:30:38.444Z,11.69
2017-11-23T08:31:38.461Z,11.65
2017-11-23T08:32:38.479Z,11.60
2017-11-23T08:33:38.493Z,11.70
2017-11-23T08:34:38.509Z,11.72
2017-11-23T08:35:38.527Z,11.72
2017-11-23T08:36:38.543Z,11.65
2017-11-23T08:37:38.562Z,11.63
2017-11-23T08:38:38.580Z,11.83
2017-11-23T08:39:38.592Z,11.73
2017-11-23T08:40:38.614Z,11.78
2017-11-23T08:41:38.632Z,11.68
2017-11-23T08:42:38.643Z,11.73
2017-11-23T08:43:38.661Z,11.54
2017-11-23T08:44:38.679Z,11.68
2017-11-23T08:45:38.694Z,11.69
2017-11-23T08:46:38.713Z,11.60
2017-11-23T08:47:38.728Z,11.73
2017-11-23T08:48:38.746Z,11.72
2017-11-23T08:49:38.764Z,11.70
2017-11-23T08:50:38.775Z,11.84
2017-11-23T08:51:38.800Z,11.81
2017-11-23T08:52:38.810Z,11.95
2017-11-23T08:53:38.828Z,11.83
2017-11-23T08:54:38.844Z,11.95
2017-11-23T08:55:38.873Z,11.90
2017-11-23T08:56:38.875Z,11.77
2017-11-23T08:57:38.895Z,11.91
2017-11-23T08:58:38.910Z,12.02
2017-11-23T08:59:38.927Z,11.91
2017-11-23T09:00:38.953Z,12.00
2017-11-23T09:01:38.961Z,11.86
2017-11-23T09:02:38.977Z,12.02
2017-11-23T09:03:38.997Z,12.12
2017-11-23T09:04:39.009Z,11.99
2017-11-23T09:05:39.027Z,12.07
2017-11-23T09:06:39.042Z,11.94
2017-11-23T09:07:39.059Z,11.95
2017-11-23T09:08:39.078Z,12.04
2017-11-23T09:09:39.094Z,12.15
2017-11-23T09:10:39.108Z,12.17
2017-11-23T09:11:39.127Z,12.20
2017-11-23T09:12:39.151Z,12.15
2017-11-23T09:13:39.160Z,12.18
2017-11-23T09:14:39.180Z,12.18
2017-11-23T09:15:39.193Z,12.25
2017-11-23T09:16:39.213Z,12.28
2017-11-23T09:17:39.228Z,12.21
2017-11-23T09:18:39.246Z,12.12
2017-11-23T09:19:39.261Z,12.13
2017-11-23T09:20:39.280Z,12.21
2017-11-23T09:21:39.302Z,12.20
2017-11-23T09:22:39.321Z,12.20
2017-11-23T09:23:39.332Z,12.35
2017-11-23T09:24:39.344Z,12.27
2017-11-23T09:25:39.365Z,12.25
2017-11-23T09:26:39.381Z,12.28
2017-11-23T09:27:39.398Z,12.24
2017-11-23T09:28:39.413Z,12.17
2017-11-23T09:29:39.430Z,12.32
2017-11-23T09:30:39.448Z,12.36
2017-11-23T09:31:39.466Z,12.36
2017-11-23T09:32:39.481Z,12.27
2017-11-23T09:33:39.502Z,12.43
2017-11-23T09:34:39.515Z,12.32
2017-11-23T09:35:39.534Z,12.37
2017-11-23T09:36:39.547Z,12.29
2017-11-23T09:37:39.565Z,12.24
2017-11-23T09:38:39.591Z,12.47
2017-11-23T09:39:39.603Z,12.42
2017-11-23T09:40:39.617Z,12.42
2017-11-23T09:41:39.637Z,12.39
2017-11-23T09:42:39.651Z,12.47
2017-11-23T09:43:39.671Z,12.32
2017-11-23T09:44:39.688Z,12.39
2017-11-23T09:45:39.707Z,12.45
2017-11-23T09:46:39.719Z,12.65
2017-11-23T09:47:39.746Z,12.78
2017-11-23T09:48:39.752Z,12.75
2017-11-23T09:49:39.770Z,12.55
2017-11-23T09:50:39.789Z,12.53
2017-11-23T09:51:39.807Z,12.76
2017-11-23T09:52:39.822Z,12.45
2017-11-23T09:53:39.837Z,12.67
2017-11-23T09:54:39.859Z,12.72
2017-11-23T09:55:39.876Z,12.62
2017-11-23T09:56:39.894Z,12.58
2017-11-23T09:57:39.928Z,12.78
2017-11-23T09:58:39.927Z,12.67
2017-11-23T09:59:39.944Z,12.65
2017-11-23T10:00:39.961Z,12.55
2017-11-23T10:01:39.977Z,12.45
2017-11-23T10:02:39.996Z,12.53
2017-11-23T10:03:40.012Z,12.49
2017-11-23T10:04:40.034Z,12.54
2017-11-23T10:05:40.046Z,12.64
2017-11-23T10:06:40.060Z,12.60
2017-11-23T10:07:40.747Z,12.57
2017-11-23T10:08:40.099Z,12.60
2017-11-23T10:09:40.117Z,12.62
2017-11-23T10:10:40.135Z,12.64
2017-11-23T10:11:40.150Z,12.90
2017-11-23T10:12:40.166Z,12.79
2017-11-23T10:13:40.184Z,12.85
2017-11-23T10:14:40.203Z,12.87
2017-11-23T10:15:40.218Z,12.91
2017-11-23T10:16:40.235Z,13.01
2017-11-23T10:17:40.270Z,13.08
2017-11-23T10:18:40.270Z,13.16
2017-11-23T10:19:40.289Z,13.22
2017-11-23T10:20:40.336Z,13.15
2017-11-23T10:21:40.323Z,13.15
2017-11-23T10:22:40.339Z,13.39
2017-11-23T10:23:40.358Z,13.56
2017-11-23T10:24:40.376Z,13.38
2017-11-23T10:25:40.390Z,13.33
2017-11-23T10:26:40.409Z,13.46
2017-11-23T10:27:40.435Z,13.23
2017-11-23T10:28:40.443Z,13.28
2017-11-23T10:29:40.471Z,13.37
2017-11-23T10:30:40.478Z,13.56
2017-11-23T10:31:40.497Z,13.49
2017-11-23T10:32:40.521Z,13.57
2017-11-23T10:33:40.531Z,13.74
2017-11-23T10:34:40.549Z,13.92
2017-11-23T10:35:40.570Z,13.68
2017-11-23T10:36:40.585Z,13.81
2017-11-23T10:37:40.606Z,13.68
2017-11-23T10:38:40.623Z,13.87
2017-11-23T10:39:40.639Z,13.95
2017-11-23T10:40:40.655Z,14.12
2017-11-23T10:41:40.672Z,14.12
2017-11-23T10:42:40.691Z,14.00
2017-11-23T10:43:40.717Z,14.04
2017-11-23T10:44:40.725Z,14.10
2017-11-23T10:45:40.750Z,14.05
2017-11-23T10:46:40.763Z,14.04
2017-11-23T10:47:40.780Z,14.25
2017-11-23T10:48:40.796Z,14.33
2017-11-23T10:49:40.816Z,14.41
2017-11-23T10:50:40.833Z,14.28
2017-11-23T10:51:40.872Z,14.30
2017-11-23T10:52:40.870Z,14.28
2017-11-23T10:53:40.894Z,14.29
2017-11-23T10:54:40.907Z,14.18
2017-11-23T10:55:40.925Z,14.41
2017-11-23T10:56:40.942Z,14.41
2017-11-23T10:57:40.966Z,14.25
2017-11-23T10:58:40.978Z,14.36
2017-11-23T10:59:40.996Z,14.33
2017-11-23T11:00:41.014Z,14.48
2017-11-23T11:01:41.033Z,14.51
2017-11-23T11:02:41.051Z,14.50
2017-11-23T11:03:41.075Z,14.47
2017-11-23T11:04:41.091Z,14.43
2017-11-23T11:05:41.155Z,14.50
2017-11-23T11:06:41.122Z,14.26
2017-11-23T11:07:41.142Z,14.23
2017-11-23T11:08:41.160Z,14.18
2017-11-23T11:09:41.180Z,14.33
2017-11-23T11:10:41.196Z,14.32
2017-11-23T11:11:41.224Z,14.36
2017-11-23T11:12:41.230Z,14.47
2017-11-23T11:13:41.249Z,14.51
2017-11-23T11:14:41.268Z,14.44
2017-11-23T11:15:41.285Z,14.51
2017-11-23T11:16:41.303Z,14.29
2017-11-23T11:17:41.323Z,14.32
2017-11-23T11:18:41.343Z,14.26
2017-11-23T11:19:41.357Z,14.22
2017-11-23T11:20:41.376Z,14.28
2017-11-23T11:21:41.394Z,14.35
2017-11-23T11:22:41.416Z,14.37
2017-11-23T11:23:41.452Z,14.37
2017-11-23T11:24:41.447Z,14.26
2017-11-23T11:25:41.470Z,14.14
2017-11-23T11:26:41.485Z,14.30
2017-11-23T11:27:41.505Z,14.30
2017-11-23T11:28:41.519Z,14.25
2017-11-23T11:29:41.540Z,14.26
2017-11-23T11:30:41.556Z,14.20
2017-11-23T11:31:41.580Z,13.99
2017-11-23T11:32:41.591Z,14.12
2017-11-23T11:33:41.618Z,14.23
2017-11-23T11:34:41.631Z,14.35
2017-11-23T11:35:41.651Z,14.17
2017-11-23T11:36:41.671Z,14.20
2017-11-23T11:37:41.683Z,14.29
2017-11-23T11:38:41.702Z,14.51
2017-11-23T11:39:41.721Z,14.30
2017-11-23T11:40:41.740Z,14.33
2017-11-23T11:41:41.758Z,14.36
2017-11-23T11:42:41.775Z,14.37
2017-11-23T11:43:41.798Z,14.55
2017-11-23T11:44:41.818Z,14.73
2017-11-23T11:45:41.833Z,14.66
2017-11-23T11:46:41.850Z,14.78
2017-11-23T11:47:41.873Z,14.77
2017-11-23T11:48:41.884Z,14.47
2017-11-23T11:49:41.903Z,14.53
2017-11-23T11:50:41.919Z,14.78
2017-11-23T11:51:41.939Z,14.92
2017-11-23T11:52:41.957Z,14.77
2017-11-23T11:53:41.979Z,14.73
2017-11-23T11:54:41.993Z,14.68
2017-11-23T11:55:42.014Z,14.77
2017-11-23T11:56:42.031Z,14.88
2017-11-23T11:57:42.053Z,14.86
2017-11-23T11:58:42.065Z,14.89
2017-11-23T11:59:42.091Z,14.86
2017-11-23T12:00:42.108Z,14.97
2017-11-23T12:01:42.122Z,15.14
2017-11-23T12:02:42.140Z,15.36
2017-11-23T12:03:42.160Z,15.19
2017-11-23T12:04:42.181Z,15.00
2017-11-23T12:05:42.195Z,15.00
2017-11-23T12:06:42.223Z,14.99
2017-11-23T12:07:42.236Z,15.14
2017-11-23T12:08:42.249Z,15.04
2017-11-23T12:09:42.281Z,14.86
2017-11-23T12:10:42.291Z,14.82
2017-11-23T12:11:42.306Z,14.91
2017-11-23T12:12:42.325Z,14.82
2017-11-23T12:13:42.343Z,14.84
2017-11-23T12:14:42.368Z,14.86
2017-11-23T12:15:42.381Z,14.94
2017-11-23T12:16:42.401Z,15.02
2017-11-23T12:17:42.417Z,14.86
2017-11-23T12:18:42.438Z,14.85
2017-11-23T12:19:42.455Z,14.97
2017-11-23T12:20:42.471Z,14.94
2017-11-23T12:21:42.492Z,15.06
2017-11-23T12:22:42.512Z,14.88
2017-11-23T12:23:42.526Z,14.99
2017-11-23T12:24:42.547Z,15.04
2017-11-23T12:25:42.563Z,15.17
2017-11-23T12:26:42.581Z,15.10
2017-11-23T12:27:42.600Z,15.27
2017-11-23T12:28:42.617Z,14.99
2017-11-23T12:29:42.638Z,14.97
2017-11-23T12:30:42.655Z,14.91
2017-11-23T12:31:42.673Z,14.94
2017-11-23T12:32:42.692Z,14.86
2017-11-23T12:33:42.710Z,14.84
2017-11-23T12:34:42.734Z,15.04
2017-11-23T12:35:42.747Z,14.92
2017-11-23T12:36:42.768Z,14.84
2017-11-23T12:37:42.786Z,14.82
2017-11-23T12:38:42.804Z,14.99
2017-11-23T12:39:42.821Z,15.17
2017-11-23T12:40:42.837Z,15.00
2017-11-23T12:41:42.860Z,14.99
2017-11-23T12:42:42.877Z,14.86
2017-11-23T12:43:42.895Z,15.02
2017-11-23T12:44:42.915Z,15.14
2017-11-23T12:45:42.937Z,15.14
2017-11-23T12:46:42.955Z,15.14
2017-11-23T12:47:43.018Z,15.07
2017-11-23T12:48:42.985Z,14.96
2017-11-23T12:49:43.005Z,14.92
2017-11-23T12:50:43.024Z,15.10
2017-11-23T12:51:43.043Z,14.97
2017-11-23T12:52:43.059Z,15.07
2017-11-23T12:53:43.080Z,15.06
2017-11-23T12:54:43.111Z,14.99
2017-11-23T12:55:43.117Z,14.99
2017-11-23T12:56:43.136Z,14.96
2017-11-23T12:57:43.152Z,14.89
2017-11-23T12:58:43.180Z,15.02
2017-11-23T12:59:43.191Z,14.92
2017-11-23T13:00:43.208Z,14.82
2017-11-23T13:01:43.225Z,14.81
2017-11-23T13:02:43.243Z,14.99
2017-11-23T13:03:43.268Z,14.79